createdAt,value
2023-04-04T00:00:42.600Z,3.97
2023-04-04T00:03:10.873Z,3.91
2023-04-04T00:05:38.800Z,3.87
2023-04-04T00:08:07.286Z,3.87
2023-04-04T00:10:35.360Z,3.72
2023-04-04T00:13:05.564Z,3.71
2023-04-04T00:15:34.667Z,3.91
2023-04-04T00:18:02.876Z,3.70
2023-04-04T00:20:30.849Z,3.69
2023-04-04T00:23:00.612Z,3.65
2023-04-04T00:25:28.830Z,3.65
2023-04-04T00:28:00.537Z,3.65
2023-04-04T00:30:31.397Z,3.74
2023-04-04T00:32:59.391Z,3.75
2023-04-04T00:35:28.047Z,3.77
2023-04-04T00:37:56.317Z,3.70
2023-04-04T00:40:24.369Z,3.45
2023-04-04T00:42:52.757Z,3.58
2023-04-04T00:45:20.762Z,3.60
2023-04-04T00:47:51.574Z,3.47
2023-04-04T00:50:19.765Z,3.54
2023-04-04T00:52:47.727Z,3.56
2023-04-04T00:55:16.549Z,3.46
2023-04-04T00:57:44.505Z,3.30
2023-04-04T01:00:15.257Z,3.41
2023-04-04T01:02:43.346Z,3.60
2023-04-04T01:05:13.550Z,3.46
2023-04-04T01:07:42.876Z,3.42
2023-04-04T01:10:12.552Z,3.43
2023-04-04T01:12:42.665Z,3.17
2023-04-04T01:15:11.753Z,3.16
2023-04-04T01:17:39.855Z,3.28
2023-04-04T01:20:13.333Z,3.35
2023-04-04T01:22:53.905Z,3.29
2023-04-04T01:25:30.183Z,3.30
2023-04-04T01:28:00.363Z,3.30
2023-04-04T01:30:33.445Z,3.27
2023-04-04T01:33:07.158Z,3.23
2023-04-04T01:35:39.474Z,3.13
2023-04-04T01:38:16.853Z,3.34
2023-04-04T01:40:50.317Z,3.29
2023-04-04T01:43:19.584Z,3.31
2023-04-04T01:45:47.629Z,3.19
2023-04-04T01:48:16.716Z,3.10
2023-04-04T01:50:48.199Z,3.09
2023-04-04T01:53:16.631Z,3.04
2023-04-04T01:55:45.885Z,3.01
2023-04-04T01:58:16.406Z,3.03
2023-04-04T02:00:44.731Z,2.97
2023-04-04T02:03:12.626Z,2.98
2023-04-04T02:05:41.005Z,3.03
2023-04-04T02:08:10.189Z,3.02
2023-04-04T02:10:48.411Z,2.86
2023-04-04T02:13:16.851Z,2.81
2023-04-04T02:15:45.675Z,3.05
2023-04-04T02:18:14.179Z,2.92
2023-04-04T02:20:42.379Z,2.82
2023-04-04T02:23:10.308Z,2.83
2023-04-04T02:25:38.194Z,2.86
2023-04-04T02:28:07.465Z,2.93
2023-04-04T02:30:35.356Z,2.96
2023-04-04T02:33:04.887Z,2.98
2023-04-04T02:35:32.864Z,3.02
2023-04-04T02:38:00.756Z,2.78
2023-04-04T02:40:39.853Z,2.72
2023-04-04T02:43:09.536Z,3.01
2023-04-04T02:45:38.661Z,3.00
2023-04-04T02:48:14.695Z,2.88
2023-04-04T02:50:48.445Z,3.00
2023-04-04T02:53:17.323Z,3.07
2023-04-04T02:55:47.235Z,2.90
2023-04-04T02:58:17.281Z,2.67
2023-04-04T03:00:47.240Z,2.78
2023-04-04T03:03:15.774Z,2.82
2023-04-04T03:05:46.380Z,2.69
2023-04-04T03:08:14.231Z,2.81
2023-04-04T03:10:42.509Z,2.89
2023-04-04T03:13:10.520Z,2.70
2023-04-04T03:15:40.853Z,2.76
2023-04-04T03:18:09.541Z,2.68
2023-04-04T03:20:37.467Z,2.72
2023-04-04T03:23:05.457Z,2.70
2023-04-04T03:25:33.359Z,2.69
2023-04-04T03:28:09.622Z,2.70
2023-04-04T03:30:39.138Z,2.73
2023-04-04T03:33:08.732Z,2.54
2023-04-04T03:35:39.600Z,2.60
2023-04-04T03:38:07.728Z,2.76
2023-04-04T03:40:35.798Z,2.66
2023-04-04T03:43:08.684Z,2.63
2023-04-04T03:45:36.833Z,2.59
2023-04-04T03:48:06.524Z,2.63
2023-04-04T03:50:36.715Z,2.67
2023-04-04T03:53:04.674Z,2.70
2023-04-04T03:55:32.555Z,2.67
2023-04-04T03:58:01.012Z,2.52
2023-04-04T04:00:28.926Z,2.50
2023-04-04T04:02:57.254Z,2.51
2023-04-04T04:05:26.951Z,2.53
2023-04-04T04:07:54.820Z,2.46
2023-04-04T04:10:22.703Z,2.46
2023-04-04T04:12:50.581Z,2.43
2023-04-04T04:15:18.454Z,2.56
2023-04-04T04:17:47.595Z,2.69
2023-04-04T04:20:16.042Z,2.57
2023-04-04T04:22:51.467Z,2.68
2023-04-04T04:25:21.348Z,2.57
2023-04-04T04:28:11.305Z,2.64
2023-04-04T04:30:39.652Z,2.50
2023-04-04T04:33:08.305Z,2.49
2023-04-04T04:35:45.012Z,2.49
2023-04-04T04:38:14.421Z,2.50
2023-04-04T04:40:42.923Z,2.63
2023-04-04T04:43:17.930Z,2.42
2023-04-04T04:45:47.464Z,2.37
2023-04-04T04:48:17.064Z,2.43
2023-04-04T04:50:50.041Z,2.46
2023-04-04T04:53:29.369Z,2.27
2023-04-04T04:55:57.461Z,2.35
2023-04-04T04:58:26.358Z,2.64
2023-04-04T05:00:58.535Z,2.48
2023-04-04T05:03:35.071Z,2.51
2023-04-04T05:06:06.530Z,2.56
2023-04-04T05:08:37.246Z,2.79
2023-04-04T05:11:15.990Z,2.98
2023-04-04T05:13:44.938Z,3.12
2023-04-04T05:16:13.183Z,3.17
2023-04-04T05:18:43.882Z,3.12
2023-04-04T05:21:12.773Z,3.18
2023-04-04T05:23:41.981Z,3.24
2023-04-04T05:26:10.184Z,3.08
2023-04-04T05:28:41.067Z,3.20
2023-04-04T05:31:09.050Z,3.13
2023-04-04T05:33:38.374Z,3.20
2023-04-04T05:36:14.544Z,3.40
2023-04-04T05:38:49.519Z,3.26
2023-04-04T05:41:20.579Z,3.37
2023-04-04T05:43:49.545Z,3.47
2023-04-04T05:46:22.306Z,3.62
2023-04-04T05:48:53.124Z,3.40
2023-04-04T05:51:21.629Z,3.54
2023-04-04T05:54:11.176Z,3.41
2023-04-04T05:56:40.231Z,3.64
2023-04-04T05:59:16.199Z,3.75
2023-04-04T06:01:54.555Z,3.76
2023-04-04T06:04:22.733Z,3.83
2023-04-04T06:06:51.999Z,3.66
2023-04-04T06:09:22.985Z,3.86
2023-04-04T06:11:50.979Z,4.32
2023-04-04T06:14:19.078Z,4.68
2023-04-04T06:16:48.141Z,4.64
2023-04-04T06:19:16.827Z,4.95
2023-04-04T06:21:44.933Z,5.41
2023-04-04T06:24:14.407Z,6.47
2023-04-04T06:26:44.862Z,6.84
2023-04-04T06:29:13.674Z,6.52
2023-04-04T06:31:43.810Z,6.06
2023-04-04T06:34:19.154Z,7.37
2023-04-04T06:36:53.913Z,6.83
2023-04-04T06:39:24.650Z,6.74
2023-04-04T06:41:56.269Z,7.31
2023-04-04T06:44:28.389Z,7.23
2023-04-04T06:46:56.397Z,7.41
2023-04-04T06:49:25.983Z,7.33
2023-04-04T06:51:54.208Z,6.79
2023-04-04T06:54:22.425Z,7.10
2023-04-04T06:56:50.413Z,6.88
2023-04-04T06:59:19.731Z,7.31
2023-04-04T07:01:47.710Z,7.83
2023-04-04T07:04:15.640Z,7.67
2023-04-04T07:06:44.110Z,7.44
2023-04-04T07:09:26.040Z,7.00
2023-04-04T07:11:56.424Z,7.46
2023-04-04T07:14:25.990Z,7.41
2023-04-04T07:16:55.051Z,7.77
2023-04-04T07:19:24.493Z,7.52
2023-04-04T07:21:52.358Z,6.68
2023-04-04T07:24:20.241Z,6.71
2023-04-04T07:26:48.157Z,6.74
2023-04-04T07:29:16.112Z,7.85
2023-04-04T07:31:45.398Z,9.21
2023-04-04T07:34:13.297Z,10.25
2023-04-04T07:36:41.212Z,10.83
2023-04-04T07:39:09.050Z,9.74
2023-04-04T07:41:36.890Z,9.78
2023-04-04T07:44:04.778Z,9.67
2023-04-04T07:46:32.872Z,8.68
2023-04-04T07:49:02.524Z,11.14
2023-04-04T07:51:31.389Z,12.09
2023-04-04T07:53:59.270Z,12.53
2023-04-04T07:56:27.137Z,12.79
2023-04-04T07:58:54.979Z,12.19
2023-04-04T08:01:22.839Z,12.91
2023-04-04T08:03:53.307Z,12.10
2023-04-04T08:06:22.782Z,12.44
2023-04-04T08:08:50.759Z,12.04
2023-04-04T08:11:18.626Z,11.51
2023-04-04T08:13:46.815Z,11.57
2023-04-04T08:16:14.728Z,12.57
2023-04-04T08:18:42.944Z,11.19
2023-04-04T08:21:10.822Z,11.93
2023-04-04T08:23:41.341Z,11.98
2023-04-04T08:26:09.243Z,12.68
2023-04-04T08:28:37.158Z,12.38
2023-04-04T08:31:05.707Z,13.01
2023-04-04T08:33:44.587Z,12.21
2023-04-04T08:36:14.830Z,11.71
2023-04-04T08:38:44.701Z,12.48
2023-04-04T08:41:13.162Z,13.11
2023-04-04T08:43:46.376Z,13.19
2023-04-04T08:46:16.568Z,12.25
2023-04-04T08:48:47.381Z,11.29
2023-04-04T08:51:17.059Z,13.00
2023-04-04T08:53:46.923Z,12.52
2023-04-04T08:56:15.511Z,12.88
2023-04-04T08:58:43.448Z,13.56
2023-04-04T09:01:11.792Z,12.76
2023-04-04T09:03:40.144Z,13.56
2023-04-04T09:06:09.120Z,13.09
2023-04-04T09:08:37.360Z,13.64
2023-04-04T09:11:07.418Z,13.61
2023-04-04T09:13:37.566Z,14.33
2023-04-04T09:16:07.156Z,13.47
2023-04-04T09:18:35.078Z,13.99
2023-04-04T09:21:10.677Z,14.15
2023-04-04T09:23:38.902Z,13.12
2023-04-04T09:26:08.241Z,10.97
2023-04-04T09:28:37.272Z,9.68
2023-04-04T09:31:09.998Z,10.70
2023-04-04T09:33:40.005Z,10.61
2023-04-04T09:36:10.355Z,9.98
2023-04-04T09:38:40.576Z,10.71
2023-04-04T09:41:10.963Z,12.19
2023-04-04T09:43:40.980Z,12.75
2023-04-04T09:46:08.992Z,12.07
2023-04-04T09:48:37.549Z,13.09
2023-04-04T09:51:06.896Z,13.31
2023-04-04T09:53:39.850Z,13.98
2023-04-04T09:56:09.962Z,13.46
2023-04-04T09:58:44.247Z,13.96
2023-04-04T10:01:19.203Z,12.34
2023-04-04T10:03:53.539Z,11.48
2023-04-04T10:06:22.545Z,12.78
2023-04-04T10:08:51.154Z,13.01
2023-04-04T10:11:32.467Z,13.64
2023-04-04T10:14:02.696Z,15.62
2023-04-04T10:16:33.227Z,16.69
2023-04-04T10:19:03.205Z,16.50
2023-04-04T10:21:31.398Z,14.56
2023-04-04T10:24:00.296Z,12.78
2023-04-04T10:26:29.513Z,14.47
2023-04-04T10:28:58.108Z,14.71
2023-04-04T10:31:27.440Z,14.56
2023-04-04T10:34:11.371Z,15.40
2023-04-04T10:36:45.447Z,16.00
2023-04-04T10:39:16.433Z,14.29
2023-04-04T10:41:51.008Z,13.37
2023-04-04T10:44:25.253Z,13.73
2023-04-04T10:46:55.246Z,13.03
2023-04-04T10:49:23.841Z,12.63
2023-04-04T10:51:56.246Z,12.73
2023-04-04T10:54:27.600Z,11.60
2023-04-04T10:57:00.840Z,12.14
2023-04-04T10:59:28.718Z,12.19
2023-04-04T11:01:58.771Z,12.22
2023-04-04T11:04:34.891Z,12.82
2023-04-04T11:07:13.710Z,13.73
2023-04-04T11:09:52.742Z,14.79
2023-04-04T11:12:29.202Z,14.47
2023-04-04T11:14:59.033Z,15.07
2023-04-04T11:17:51.705Z,15.52
2023-04-04T11:20:22.404Z,15.25
2023-04-04T11:23:04.555Z,13.71
2023-04-04T11:25:34.053Z,13.32
2023-04-04T11:28:08.245Z,12.45
2023-04-04T11:30:44.882Z,12.70
2023-04-04T11:33:13.954Z,12.54
2023-04-04T11:35:46.996Z,12.35
2023-04-04T11:38:16.161Z,11.48
2023-04-04T11:40:53.167Z,12.16
2023-04-04T11:43:22.488Z,12.57
2023-04-04T11:45:50.791Z,13.46
2023-04-04T11:48:21.770Z,13.39
2023-04-04T11:50:53.079Z,13.89
2023-04-04T11:53:21.193Z,12.60
2023-04-04T11:55:53.011Z,13.18
2023-04-04T11:58:23.225Z,11.98
2023-04-04T12:00:51.126Z,11.01
2023-04-04T12:03:19.360Z,11.37
2023-04-04T12:05:47.792Z,12.23
2023-04-04T12:08:18.066Z,12.11
2023-04-04T12:10:46.277Z,11.79
2023-04-04T12:13:14.187Z,11.93
2023-04-04T12:15:44.064Z,12.14
2023-04-04T12:18:22.083Z,11.65
2023-04-04T12:20:50.057Z,11.46
2023-04-04T12:23:17.943Z,11.65
2023-04-04T12:25:49.854Z,11.31
2023-04-04T12:28:18.325Z,11.31
2023-04-04T12:30:47.693Z,12.30
2023-04-04T12:33:15.695Z,13.03
2023-04-04T12:35:52.516Z,11.59
2023-04-04T12:38:20.466Z,11.54
2023-04-04T12:40:48.344Z,12.33
2023-04-04T12:43:18.657Z,12.19
2023-04-04T12:45:50.811Z,11.66
2023-04-04T12:48:19.027Z,11.89
2023-04-04T12:50:54.609Z,11.84
2023-04-04T12:55:55.813Z,11.98
2023-04-04T12:58:25.518Z,11.89
2023-04-04T13:00:56.876Z,12.21
2023-04-04T13:03:26.257Z,12.49
2023-04-04T13:05:54.211Z,12.62
2023-04-04T13:08:22.344Z,13.22
2023-04-04T13:11:02.345Z,12.82
2023-04-04T13:13:35.333Z,12.99
2023-04-04T13:16:06.296Z,12.45
2023-04-04T13:18:37.447Z,12.32
2023-04-04T13:21:07.929Z,12.68
2023-04-04T13:23:37.499Z,12.96
2023-04-04T13:26:05.814Z,13.16
2023-04-04T13:28:33.872Z,12.99
2023-04-04T13:31:05.044Z,13.47
2023-04-04T13:33:33.351Z,13.54
2023-04-04T13:36:01.710Z,12.98
2023-04-04T13:38:30.483Z,12.74
2023-04-04T13:40:59.325Z,12.87
2023-04-04T13:43:27.549Z,13.14
2023-04-04T13:45:55.972Z,12.71
2023-04-04T13:48:25.460Z,12.57
2023-04-04T13:50:55.332Z,12.52
2023-04-04T13:53:23.513Z,12.04
2023-04-04T13:56:13.961Z,12.82
2023-04-04T13:58:39.345Z,13.01
2023-04-04T14:01:08.259Z,12.20
2023-04-04T14:03:37.796Z,12.15
2023-04-04T14:06:10.376Z,12.37
2023-04-04T14:08:39.071Z,12.25
2023-04-04T14:11:06.990Z,11.72
2023-04-04T14:13:36.197Z,11.88
2023-04-04T14:16:04.256Z,11.86
2023-04-04T14:18:32.178Z,11.82
2023-04-04T14:21:01.495Z,11.82
2023-04-04T14:23:30.623Z,11.16
2023-04-04T14:25:58.483Z,10.89
2023-04-04T14:28:26.433Z,11.37
2023-04-04T14:30:54.328Z,11.38
2023-04-04T14:33:22.293Z,11.40
2023-04-04T14:35:51.002Z,11.10
2023-04-04T14:38:20.236Z,11.48
2023-04-04T14:40:48.936Z,11.84
2023-04-04T14:43:17.082Z,12.06
2023-04-04T14:45:44.963Z,12.41
2023-04-04T14:48:12.852Z,12.39
2023-04-04T14:50:42.818Z,12.07
2023-04-04T14:53:10.753Z,12.32
2023-04-04T14:55:40.222Z,12.40
2023-04-04T14:58:08.290Z,11.88
2023-04-04T15:00:36.281Z,12.25
2023-04-04T15:03:07.175Z,12.73
2023-04-04T15:05:35.359Z,12.12
2023-04-04T15:08:03.245Z,12.56
2023-04-04T15:10:31.543Z,12.26
2023-04-04T15:13:00.942Z,12.52
2023-04-04T15:15:30.014Z,12.25
2023-04-04T15:17:57.969Z,12.27
2023-04-04T15:20:25.853Z,12.28
2023-04-04T15:22:54.489Z,12.37
2023-04-04T15:25:22.411Z,12.51
2023-04-04T15:27:50.252Z,11.88
2023-04-04T15:30:19.689Z,12.22
2023-04-04T15:32:47.578Z,11.76
2023-04-04T15:35:20.466Z,11.67
2023-04-04T15:37:49.104Z,10.98
2023-04-04T15:40:17.733Z,10.82
2023-04-04T15:42:46.390Z,10.99
2023-04-04T15:45:15.374Z,11.07
2023-04-04T15:47:45.118Z,10.88
2023-04-04T15:50:13.299Z,10.79
2023-04-04T15:52:41.712Z,11.33
2023-04-04T15:55:13.186Z,10.94
2023-04-04T15:57:44.466Z,10.88
2023-04-04T16:00:14.602Z,10.72
2023-04-04T16:02:44.134Z,10.63
2023-04-04T16:05:12.262Z,11.13
2023-04-04T16:07:40.133Z,10.98
2023-04-04T16:10:09.044Z,10.97
2023-04-04T16:12:36.972Z,11.25
2023-04-04T16:15:06.952Z,10.85
2023-04-04T16:17:35.387Z,10.46
2023-04-04T16:20:06.297Z,10.45
2023-04-04T16:22:34.258Z,10.03
2023-04-04T16:25:02.112Z,10.02
2023-04-04T16:27:30.049Z,9.90
2023-04-04T16:29:58.002Z,9.93
2023-04-04T16:32:25.923Z,10.26
2023-04-04T16:34:54.136Z,10.09
2023-04-04T16:37:23.417Z,10.03
2023-04-04T16:39:52.068Z,10.26
2023-04-04T16:42:20.297Z,10.30
2023-04-04T16:44:48.123Z,9.98
2023-04-04T16:47:16.209Z,10.13
2023-04-04T16:49:44.081Z,9.72
2023-04-04T16:52:11.941Z,10.14
2023-04-04T16:54:41.529Z,10.08
2023-04-04T16:57:09.917Z,10.02
2023-04-04T16:59:37.827Z,10.18
2023-04-04T17:02:09.190Z,10.36
2023-04-04T17:04:41.130Z,10.14
2023-04-04T17:07:10.302Z,10.42
2023-04-04T17:09:38.468Z,10.57
2023-04-04T17:12:08.139Z,10.70
2023-04-04T17:14:36.600Z,10.38
2023-04-04T17:17:05.483Z,10.67
2023-04-04T17:19:35.042Z,10.42
2023-04-04T17:22:03.451Z,10.18
2023-04-04T17:24:31.358Z,10.17
2023-04-04T17:26:59.250Z,10.26
2023-04-04T17:29:28.832Z,10.29
2023-04-04T17:31:57.967Z,10.26
2023-04-04T17:34:26.451Z,10.26
2023-04-04T17:36:54.735Z,10.28
2023-04-04T17:39:22.746Z,9.95
2023-04-04T17:41:52.112Z,10.12
2023-04-04T17:44:21.614Z,10.14
2023-04-04T17:46:50.853Z,10.30
2023-04-04T17:49:20.303Z,10.25
2023-04-04T17:51:48.882Z,10.28
2023-04-04T17:54:16.951Z,10.10
2023-04-04T17:56:46.895Z,10.06
2023-04-04T17:59:16.565Z,10.07
2023-04-04T18:01:45.318Z,10.06
2023-04-04T18:04:14.604Z,9.92
2023-04-04T18:06:42.711Z,9.98
2023-04-04T18:09:11.118Z,10.04
2023-04-04T18:11:39.911Z,9.73
2023-04-04T18:14:08.418Z,9.68
2023-04-04T18:16:40.115Z,9.63
2023-04-04T18:19:08.683Z,9.52
2023-04-04T18:21:38.064Z,9.30
2023-04-04T18:24:07.384Z,9.43
2023-04-04T18:26:35.333Z,9.48
2023-04-04T18:29:03.414Z,9.39
2023-04-04T18:31:31.540Z,9.35
2023-04-04T18:33:59.442Z,9.25
2023-04-04T18:36:27.979Z,9.24
2023-04-04T18:38:57.231Z,9.33
2023-04-04T18:41:25.210Z,9.30
2023-04-04T18:43:53.177Z,9.35
2023-04-04T18:46:21.091Z,9.20
2023-04-04T18:48:49.016Z,9.25
2023-04-04T18:51:17.469Z,9.30
2023-04-04T18:53:45.405Z,9.38
2023-04-04T18:56:14.640Z,9.40
2023-04-04T18:58:42.902Z,9.46
2023-04-04T19:01:12.784Z,9.43
2023-04-04T19:03:43.111Z,9.20
2023-04-04T19:06:13.279Z,9.15
2023-04-04T19:08:41.974Z,9.28
2023-04-04T19:11:10.276Z,9.41
2023-04-04T19:13:39.634Z,9.41
2023-04-04T19:16:07.571Z,9.33
2023-04-04T19:18:36.068Z,9.26
2023-04-04T19:21:05.566Z,9.19
2023-04-04T19:23:33.441Z,9.09
2023-04-04T19:26:02.247Z,9.11
2023-04-04T19:28:30.155Z,8.95
2023-04-04T19:31:00.750Z,9.08
2023-04-04T19:33:28.771Z,9.00
2023-04-04T19:35:59.107Z,8.99
2023-04-04T19:38:28.685Z,8.99
2023-04-04T19:40:59.442Z,8.97
2023-04-04T19:43:28.247Z,8.86
2023-04-04T19:45:57.957Z,8.99
2023-04-04T19:48:44.703Z,8.97
2023-04-04T19:51:42.645Z,9.03
2023-04-04T19:54:16.116Z,8.99
2023-04-04T19:56:46.715Z,8.75
2023-04-04T19:59:55.651Z,8.61
2023-04-04T20:02:54.197Z,8.30
2023-04-04T20:06:04.310Z,8.38
2023-04-04T20:08:41.168Z,8.32
2023-04-04T20:11:09.099Z,8.41
2023-04-04T20:13:38.104Z,8.37
2023-04-04T20:16:08.839Z,8.01
2023-04-04T20:18:38.065Z,7.77
2023-04-04T20:21:11.308Z,7.87
2023-04-04T20:23:45.788Z,8.21
2023-04-04T20:26:16.245Z,8.20
2023-04-04T20:28:47.577Z,8.24
2023-04-04T20:31:18.313Z,8.22
2023-04-04T20:33:46.278Z,7.96
2023-04-04T20:36:32.638Z,8.13
2023-04-04T20:39:01.888Z,7.79
2023-04-04T20:41:29.696Z,7.72
2023-04-04T20:43:58.964Z,7.65
2023-04-04T20:46:28.420Z,7.78
2023-04-04T20:48:57.298Z,7.77
2023-04-04T20:51:28.219Z,7.77
2023-04-04T20:53:58.122Z,7.57
2023-04-04T20:56:56.624Z,7.54
2023-04-04T20:59:38.313Z,7.49
2023-04-04T21:02:16.650Z,7.28
2023-04-04T21:04:46.116Z,7.47
2023-04-04T21:07:35.828Z,7.37
2023-04-04T21:10:04.142Z,7.47
2023-04-04T21:12:33.590Z,7.47
2023-04-04T21:15:01.602Z,7.34
2023-04-04T21:17:29.526Z,7.32
2023-04-04T21:19:58.634Z,7.31
2023-04-04T21:22:26.507Z,7.22
2023-04-04T21:24:54.397Z,7.18
2023-04-04T21:27:35.971Z,7.17
2023-04-04T21:30:09.343Z,7.26
2023-04-04T21:32:37.371Z,6.98
2023-04-04T21:35:10.732Z,7.09
2023-04-04T21:37:39.448Z,6.86
2023-04-04T21:40:09.707Z,6.74
2023-04-04T21:42:38.893Z,6.85
2023-04-04T21:45:08.055Z,6.91
2023-04-04T21:47:35.914Z,6.65
2023-04-04T21:50:03.848Z,6.85
2023-04-04T21:52:31.745Z,6.88
2023-04-04T21:54:59.577Z,6.76
2023-04-04T21:57:27.494Z,6.82
2023-04-04T21:59:56.689Z,6.77
2023-04-04T22:02:24.597Z,6.86
2023-04-04T22:04:52.557Z,6.84
2023-04-04T22:07:20.483Z,6.84
2023-04-04T22:09:48.278Z,6.82
2023-04-04T22:12:16.165Z,6.62
2023-04-04T22:14:45.406Z,6.60
2023-04-04T22:17:22.870Z,6.58
2023-04-04T22:19:58.892Z,6.47
2023-04-04T22:22:29.747Z,6.43
2023-04-04T22:25:07.084Z,6.38
2023-04-04T22:27:38.005Z,6.35
2023-04-04T22:30:07.045Z,6.36
2023-04-04T22:32:39.125Z,6.31
2023-04-04T22:35:07.780Z,6.22
2023-04-04T22:37:35.611Z,6.22
2023-04-04T22:40:05.286Z,6.29
2023-04-04T22:42:33.145Z,6.17
2023-04-04T22:45:00.974Z,6.17
2023-04-04T22:47:29.419Z,6.15
2023-04-04T22:50:04.623Z,6.16
2023-04-04T22:52:32.986Z,6.06
2023-04-04T22:55:00.929Z,6.07
2023-04-04T22:57:28.770Z,5.95
2023-04-04T22:59:56.623Z,5.90
2023-04-04T23:02:24.491Z,5.90
2023-04-04T23:04:52.446Z,5.90
2023-04-04T23:07:21.904Z,5.93
2023-04-04T23:09:49.799Z,5.92
2023-04-04T23:12:17.632Z,5.86
2023-04-04T23:14:47.275Z,5.90
2023-04-04T23:17:15.117Z,5.93
2023-04-04T23:19:42.940Z,5.91
2023-04-04T23:22:11.474Z,5.72
2023-04-04T23:24:41.643Z,5.73
2023-04-04T23:27:09.483Z,5.72
2023-04-04T23:29:37.389Z,5.80
2023-04-04T23:32:05.844Z,5.82
2023-04-04T23:34:33.667Z,5.81
2023-04-04T23:37:01.492Z,5.73
2023-04-04T23:39:29.789Z,5.73
2023-04-04T23:41:59.758Z,5.75
2023-04-04T23:44:27.716Z,5.60
2023-04-04T23:46:55.772Z,5.61
2023-04-04T23:49:23.928Z,5.53
2023-04-04T23:51:51.807Z,5.70
2023-04-04T23:54:19.698Z,5.57
2023-04-04T23:56:47.506Z,5.60
2023-04-04T23:59:17.045Z,5.59
